Estación Meteorológica Peña el Pijo (Robertgarden) [ 02/03/23 04:52:48 CET ]

Fecha Hora Presion(HPa) Temp (°C) Humedad % Rocio (°C) Viento ( m/s) Direccion Lluvia 1Hora(mm) Lluvia 24H(mm) LLuvia Total(mm)
2012-Oct-26 01:01:15 999.700 9.6 91 8.2         178.19
2012-Oct-26 02:01:16 998.900 8.7 92 7.5         178.19
2012-Oct-26 03:01:49 999.300 9.0 92 7.8         178.19
2012-Oct-26 04:01:52 998.600 9.1 91 7.7         178.19
2012-Oct-26 05:05:17 998.100 8.4 92 7.2         178.19
2012-Oct-26 06:01:18 997.300 8.7 93 7.7         178.19
2012-Oct-26 07:01:13 997.700 10.4 84 7.8         178.19
2012-Oct-26 08:01:11 998.100 10.3 82 7.3         178.19
2012-Oct-26 09:01:14 997.900 8.9 86 6.7         178.19
2012-Oct-26 10:01:16 998.400 10.1 89 8.3         178.19
2012-Oct-26 11:01:14 997.900 13.1 82 10.1         178.19
2012-Oct-26 12:01:16 998.000 14.2 75 9.8         178.19
2012-Oct-26 13:01:14 997.700 16.4 68 10.5         178.19
2012-Oct-26 14:01:16 997.200 16.9 64 10.0         178.19
2012-Oct-26 15:01:13 996.500 16.9 60 9.1         178.19
2012-Oct-26 16:01:13 996.100 16.6 57 8.0 1.4 SW     178.19
2012-Oct-26 17:01:13 996.200 14.8 64 8.0         178.19
2012-Oct-26 18:01:13 996.400 12.3 79 8.8         178.19
2012-Oct-26 19:01:13 996.200 10.7 84 8.1         178.19
2012-Oct-26 20:01:17 996.500 10.3 84 7.7         178.19
2012-Oct-26 21:01:16 996.400 9.8 87 7.7         178.19
2012-Oct-26 22:01:14 996.300 9.9 89 8.1         178.19
2012-Oct-26 23:01:13 996.600 9.9 90 8.3         178.19

Temperatura Máxima:16°    Temperatura Mínima:
Presión Máxima:999.700 Hpa    Presión Mínima:996.100 Hpa


Volver